createdAt,value
2023-04-02T00:01:38.964Z,79.30
2023-04-02T00:04:26.392Z,79.03
2023-04-02T00:07:33.233Z,78.34
2023-04-02T00:10:00.432Z,77.66
2023-04-02T00:12:27.532Z,78.23
2023-04-02T00:14:55.941Z,78.80
2023-04-02T00:17:26.045Z,78.81
2023-04-02T00:20:07.736Z,77.97
2023-04-02T00:22:34.919Z,78.48
2023-04-02T00:25:12.409Z,78.97
2023-04-02T00:27:40.207Z,78.00
2023-04-02T00:30:14.354Z,77.42
2023-04-02T00:32:42.150Z,78.94
2023-04-02T00:35:27.006Z,78.53
2023-04-02T00:37:55.437Z,78.16
2023-04-02T00:40:30.925Z,79.10
2023-04-02T00:43:04.317Z,77.64
2023-04-02T00:45:38.642Z,78.21
2023-04-02T00:48:59.610Z,78.02
2023-04-02T00:51:44.146Z,77.84
2023-04-02T00:54:16.158Z,77.56
2023-04-02T00:56:48.223Z,77.09
2023-04-02T00:59:42.915Z,77.89
2023-04-02T01:02:17.350Z,77.34
2023-04-02T01:05:24.604Z,77.92
2023-04-02T01:08:06.553Z,77.38
2023-04-02T01:11:04.603Z,77.50
2023-04-02T01:14:15.777Z,77.74
2023-04-02T01:17:08.684Z,77.51
2023-04-02T01:20:12.129Z,77.49
2023-04-02T01:23:16.927Z,77.44
2023-04-02T01:26:00.655Z,78.28
2023-04-02T01:29:02.576Z,77.18
2023-04-02T01:31:33.120Z,77.20
2023-04-02T01:34:02.471Z,77.92
2023-04-02T01:36:47.638Z,76.82
2023-04-02T01:39:42.610Z,77.43
2023-04-02T01:42:43.010Z,78.04
2023-04-02T01:45:19.513Z,76.45
2023-04-02T01:47:47.296Z,76.19
2023-04-02T01:50:24.099Z,76.38
2023-04-02T01:52:59.085Z,75.91
2023-04-02T01:55:59.995Z,75.23
2023-04-02T01:58:32.343Z,75.00
2023-04-02T02:01:17.547Z,75.07
2023-04-02T02:03:45.534Z,75.33
2023-04-02T02:06:16.628Z,75.35
2023-04-02T02:09:03.670Z,75.49
2023-04-02T02:11:33.566Z,74.68
2023-04-02T02:14:12.794Z,74.85
2023-04-02T02:16:41.901Z,75.39
2023-04-02T02:19:32.839Z,74.84
2023-04-02T02:22:30.063Z,74.13
2023-04-02T02:25:01.990Z,75.87
2023-04-02T02:27:28.891Z,75.05
2023-04-02T02:30:17.532Z,74.63
2023-04-02T02:33:04.150Z,74.79
2023-04-02T02:36:07.613Z,74.57
2023-04-02T02:38:34.478Z,75.55
2023-04-02T02:41:31.696Z,74.70
2023-04-02T02:44:18.581Z,75.77
2023-04-02T02:46:53.591Z,74.94
2023-04-02T02:49:32.908Z,74.92
2023-04-02T02:52:30.859Z,74.68
2023-04-02T02:55:12.411Z,74.04
2023-04-02T02:57:56.412Z,75.45
2023-04-02T03:00:24.685Z,74.69
2023-04-02T03:02:56.610Z,75.90
2023-04-02T03:05:29.146Z,74.59
2023-04-02T03:07:58.106Z,74.00
2023-04-02T03:10:50.598Z,74.41
2023-04-02T03:13:35.585Z,74.69
2023-04-02T03:16:28.178Z,73.27
2023-04-02T03:19:43.589Z,74.17
2023-04-02T03:22:38.303Z,75.32
2023-04-02T03:25:43.740Z,75.35
2023-04-02T03:28:21.205Z,74.58
2023-04-02T03:31:01.409Z,74.70
2023-04-02T03:33:39.436Z,75.87
2023-04-02T03:36:38.397Z,74.41
2023-04-02T03:39:51.422Z,75.53
2023-04-02T03:42:47.941Z,74.87
2023-04-02T03:45:39.230Z,75.48
2023-04-02T03:48:38.033Z,76.16
2023-04-02T03:52:14.820Z,74.87
2023-04-02T03:54:54.217Z,74.59
2023-04-02T03:58:08.545Z,75.24
2023-04-02T04:00:48.150Z,75.32
2023-04-02T04:03:36.552Z,75.23
2023-04-02T04:06:27.648Z,75.56
2023-04-02T04:09:35.339Z,75.01
2023-04-02T04:12:40.190Z,75.16
2023-04-02T04:15:21.374Z,74.31
2023-04-02T04:18:34.824Z,74.80
2023-04-02T04:21:12.463Z,74.70
2023-04-02T04:23:41.136Z,75.13
2023-04-02T04:26:35.066Z,74.85
2023-04-02T04:29:45.389Z,74.85
2023-04-02T04:32:38.895Z,74.50
2023-04-02T04:35:34.430Z,74.48
2023-04-02T04:38:14.448Z,73.80
2023-04-02T04:40:54.305Z,74.51
2023-04-02T04:43:50.406Z,73.93
2023-04-02T04:46:32.340Z,74.39
2023-04-02T04:49:33.962Z,74.50
2023-04-02T04:52:35.392Z,74.10
2023-04-02T04:55:04.121Z,73.85
2023-04-02T04:57:41.403Z,74.23
2023-04-02T05:00:25.964Z,72.23
2023-04-02T05:03:26.690Z,73.98
2023-04-02T05:05:59.838Z,73.33
2023-04-02T05:08:36.575Z,72.24
2023-04-02T05:11:38.080Z,73.53
2023-04-02T05:14:20.711Z,71.83
2023-04-02T05:17:10.172Z,72.22
2023-04-02T05:20:00.989Z,72.50
2023-04-02T05:22:51.335Z,72.23
2023-04-02T05:25:32.566Z,72.13
2023-04-02T05:28:50.876Z,72.83
2023-04-02T05:32:07.565Z,71.15
2023-04-02T05:34:39.588Z,72.69
2023-04-02T05:37:13.364Z,73.38
2023-04-02T05:39:49.318Z,72.65
2023-04-02T05:42:32.230Z,72.20
2023-04-02T05:45:46.679Z,73.31
2023-04-02T05:48:30.733Z,73.11
2023-04-02T05:50:58.978Z,71.53
2023-04-02T05:53:54.277Z,72.19
2023-04-02T05:56:39.766Z,71.17
2023-04-02T05:59:38.514Z,72.37
2023-04-02T06:02:15.952Z,72.86
2023-04-02T06:05:11.310Z,72.83
2023-04-02T06:08:08.795Z,72.51
2023-04-02T06:11:13.988Z,71.26
2023-04-02T06:13:41.072Z,72.52
2023-04-02T06:16:13.033Z,70.64
2023-04-02T06:18:40.283Z,71.40
2023-04-02T06:21:08.424Z,72.21
2023-04-02T06:24:04.349Z,72.05
2023-04-02T06:26:41.371Z,70.27
2023-04-02T06:29:28.103Z,70.48
2023-04-02T06:32:04.118Z,69.21
2023-04-02T06:34:33.446Z,69.79
2023-04-02T06:37:37.649Z,69.13
2023-04-02T06:40:29.429Z,69.21
2023-04-02T06:43:00.952Z,68.24
2023-04-02T06:45:41.978Z,68.06
2023-04-02T06:48:19.431Z,67.69
2023-04-02T06:50:56.485Z,67.85
2023-04-02T06:53:45.754Z,67.14
2023-04-02T06:56:47.768Z,67.72
2023-04-02T06:59:18.835Z,67.99
2023-04-02T07:01:55.909Z,67.14
2023-04-02T07:04:23.513Z,66.39
2023-04-02T07:06:51.180Z,67.15
2023-04-02T07:09:18.555Z,66.48
2023-04-02T07:11:46.341Z,66.12
2023-04-02T07:14:13.846Z,63.88
2023-04-02T07:16:44.222Z,64.28
2023-04-02T07:19:22.894Z,63.89
2023-04-02T07:21:50.009Z,65.31
2023-04-02T07:24:17.096Z,63.68
2023-04-02T07:26:44.326Z,66.26
2023-04-02T07:29:17.393Z,64.54
2023-04-02T07:31:44.629Z,65.16
2023-04-02T07:34:11.973Z,63.86
2023-04-02T07:36:39.207Z,64.14
2023-04-02T07:39:06.232Z,64.48
2023-04-02T07:41:33.562Z,65.57
2023-04-02T07:44:03.951Z,63.57
2023-04-02T07:46:31.070Z,64.04
2023-04-02T07:48:58.234Z,63.89
2023-04-02T07:51:26.608Z,64.94
2023-04-02T07:53:55.784Z,64.03
2023-04-02T07:56:25.498Z,64.65
2023-04-02T07:58:52.629Z,63.85
2023-04-02T08:01:27.092Z,64.26
2023-04-02T08:03:57.049Z,62.55
2023-04-02T08:06:25.313Z,64.37
2023-04-02T08:08:52.597Z,64.67
2023-04-02T08:11:19.993Z,63.88
2023-04-02T08:13:47.170Z,64.13
2023-04-02T08:16:14.615Z,63.91
2023-04-02T08:18:41.788Z,63.29
2023-04-02T08:21:11.041Z,62.93
2023-04-02T08:23:38.512Z,63.04
2023-04-02T08:26:06.963Z,63.81
2023-04-02T08:28:37.406Z,64.02
2023-04-02T08:31:04.900Z,63.02
2023-04-02T08:33:32.501Z,62.76
2023-04-02T08:35:59.822Z,64.04
2023-04-02T08:38:27.043Z,64.61
2023-04-02T08:40:58.626Z,64.30
2023-04-02T08:44:10.042Z,64.19
2023-04-02T08:47:01.277Z,64.10
2023-04-02T08:49:38.439Z,64.13
2023-04-02T08:52:05.617Z,61.49
2023-04-02T08:54:39.305Z,58.86
2023-04-02T08:57:58.959Z,58.70
2023-04-02T09:00:45.607Z,59.38
2023-04-02T09:03:45.695Z,58.94
2023-04-02T09:06:19.189Z,59.33
2023-04-02T09:08:52.938Z,60.55
2023-04-02T09:12:03.942Z,58.72
2023-04-02T09:14:41.795Z,59.37
2023-04-02T09:17:27.911Z,58.44
2023-04-02T09:20:21.302Z,56.25
2023-04-02T09:22:51.731Z,57.54
2023-04-02T09:25:25.552Z,58.85
2023-04-02T09:27:57.064Z,57.99
2023-04-02T09:30:52.658Z,55.53
2023-04-02T09:33:19.734Z,57.51
2023-04-02T09:35:57.868Z,56.38
2023-04-02T09:38:32.708Z,56.31
2023-04-02T09:41:07.479Z,56.36
2023-04-02T09:43:39.023Z,55.71
2023-04-02T09:46:26.282Z,57.07
2023-04-02T09:49:03.504Z,55.29
2023-04-02T09:51:36.599Z,54.41
2023-04-02T09:54:03.637Z,55.64
2023-04-02T09:56:37.226Z,54.92
2023-04-02T09:59:13.394Z,54.38
2023-04-02T10:01:54.640Z,54.58
2023-04-02T10:04:48.088Z,56.18
2023-04-02T10:07:45.071Z,53.39
2023-04-02T10:10:30.714Z,54.86
2023-04-02T10:13:30.581Z,56.20
2023-04-02T10:16:27.070Z,53.54
2023-04-02T10:19:34.082Z,53.28
2023-04-02T10:22:12.853Z,57.00
2023-04-02T10:24:40.600Z,53.77
2023-04-02T10:27:57.537Z,55.98
2023-04-02T10:31:17.497Z,54.95
2023-04-02T10:33:55.665Z,53.45
2023-04-02T10:37:03.572Z,54.08
2023-04-02T10:39:46.252Z,54.57
2023-04-02T10:42:43.826Z,55.24
2023-04-02T10:45:55.604Z,54.61
2023-04-02T10:48:54.625Z,52.61
2023-04-02T10:51:33.086Z,54.97
2023-04-02T10:54:41.642Z,53.04
2023-04-02T10:57:41.655Z,53.70
2023-04-02T11:00:12.550Z,53.42
2023-04-02T11:02:53.360Z,54.61
2023-04-02T11:05:44.817Z,53.10
2023-04-02T11:08:47.439Z,55.59
2023-04-02T11:11:36.606Z,54.79
2023-04-02T11:14:30.407Z,55.77
2023-04-02T11:17:02.906Z,51.95
2023-04-02T11:19:33.352Z,51.90
2023-04-02T11:22:25.784Z,52.60
2023-04-02T11:24:56.009Z,52.69
2023-04-02T11:27:33.878Z,53.55
2023-04-02T11:30:16.193Z,52.26
2023-04-02T11:32:49.339Z,51.98
2023-04-02T11:35:33.949Z,53.07
2023-04-02T11:38:10.054Z,49.97
2023-04-02T11:40:55.774Z,53.65
2023-04-02T11:43:37.815Z,52.32
2023-04-02T11:46:28.991Z,52.13
2023-04-02T11:49:37.728Z,51.71
2023-04-02T11:52:18.981Z,49.54
2023-04-02T11:54:54.937Z,48.44
2023-04-02T11:57:49.854Z,51.65
2023-04-02T12:00:31.804Z,47.35
2023-04-02T12:04:09.825Z,48.74
2023-04-02T12:07:20.335Z,50.60
2023-04-02T12:09:56.150Z,50.24
2023-04-02T12:12:33.853Z,43.97
2023-04-02T12:15:01.475Z,46.06
2023-04-02T12:17:38.242Z,51.63
2023-04-02T12:20:13.625Z,50.59
2023-04-02T12:22:50.834Z,50.52
2023-04-02T12:25:34.568Z,48.97
2023-04-02T12:28:18.548Z,50.34
2023-04-02T12:30:48.655Z,47.56
2023-04-02T12:33:38.130Z,47.82
2023-04-02T12:36:23.678Z,47.61
2023-04-02T12:38:54.578Z,44.96
2023-04-02T12:41:36.620Z,46.53
2023-04-02T12:44:18.436Z,46.40
2023-04-02T12:46:46.607Z,47.66
2023-04-02T12:49:42.108Z,50.04
2023-04-02T12:52:24.494Z,49.08
2023-04-02T12:55:03.258Z,47.34
2023-04-02T12:57:30.272Z,46.16
2023-04-02T13:00:06.524Z,46.72
2023-04-02T13:02:46.965Z,45.16
2023-04-02T13:05:31.359Z,49.48
2023-04-02T13:07:58.507Z,43.74
2023-04-02T13:10:27.866Z,46.10
2023-04-02T13:13:06.543Z,48.16
2023-04-02T13:15:36.700Z,49.89
2023-04-02T13:18:05.374Z,48.53
2023-04-02T13:20:41.939Z,47.38
2023-04-02T13:23:32.997Z,49.84
2023-04-02T13:26:26.158Z,48.42
2023-04-02T13:29:03.247Z,48.41
2023-04-02T13:31:33.334Z,48.37
2023-04-02T13:34:01.167Z,47.67
2023-04-02T13:36:29.458Z,46.77
2023-04-02T13:38:57.406Z,49.09
2023-04-02T13:41:59.475Z,48.57
2023-04-02T13:44:34.564Z,47.11
2023-04-02T13:47:01.919Z,47.43
2023-04-02T13:49:29.822Z,46.92
2023-04-02T13:52:05.516Z,48.35
2023-04-02T13:54:49.241Z,48.22
2023-04-02T13:57:16.823Z,47.62
2023-04-02T13:59:43.940Z,47.19
2023-04-02T14:02:24.330Z,46.61
2023-04-02T14:05:17.408Z,45.93
2023-04-02T14:08:16.538Z,45.97
2023-04-02T14:11:21.393Z,49.84
2023-04-02T14:14:36.424Z,46.75
2023-04-02T14:17:17.669Z,48.62
2023-04-02T14:20:32.116Z,46.40
2023-04-02T14:23:48.105Z,47.32
2023-04-02T14:26:40.072Z,47.86
2023-04-02T14:29:21.968Z,48.13
2023-04-02T14:32:20.344Z,49.30
2023-04-02T14:35:25.304Z,49.76
2023-04-02T14:38:04.901Z,48.95
2023-04-02T14:41:08.776Z,46.61
2023-04-02T14:43:45.339Z,46.38
2023-04-02T14:46:12.706Z,48.31
2023-04-02T14:49:08.940Z,50.05
2023-04-02T14:52:00.694Z,49.83
2023-04-02T14:54:42.662Z,49.40
2023-04-02T14:57:32.779Z,48.22
2023-04-02T15:00:33.814Z,48.06
2023-04-02T15:03:17.106Z,47.39
2023-04-02T15:06:10.630Z,48.08
2023-04-02T15:09:09.473Z,49.59
2023-04-02T15:11:54.896Z,47.46
2023-04-02T15:15:02.308Z,47.35
2023-04-02T15:17:30.978Z,45.28
2023-04-02T15:20:17.658Z,46.95
2023-04-02T15:23:07.871Z,48.37
2023-04-02T15:25:55.372Z,49.51
2023-04-02T15:28:37.200Z,49.25
2023-04-02T15:31:12.904Z,48.94
2023-04-02T15:34:05.797Z,46.08
2023-04-02T15:37:03.067Z,47.08
2023-04-02T15:40:06.033Z,44.44
2023-04-02T15:43:24.310Z,46.09
2023-04-02T15:46:31.009Z,46.85
2023-04-02T15:50:00.950Z,49.62
2023-04-02T15:52:58.969Z,48.66
2023-04-02T15:56:24.508Z,48.61
2023-04-02T15:59:39.262Z,47.73
2023-04-02T16:03:09.907Z,48.20
2023-04-02T16:06:00.719Z,49.38
2023-04-02T16:08:45.249Z,49.13
2023-04-02T16:11:15.158Z,48.31
2023-04-02T16:13:43.726Z,49.65
2023-04-02T16:16:32.583Z,46.99
2023-04-02T16:19:40.120Z,50.00
2023-04-02T16:22:30.517Z,49.86
2023-04-02T16:25:16.376Z,49.33
2023-04-02T16:28:28.266Z,48.42
2023-04-02T16:31:37.620Z,48.64
2023-04-02T16:35:22.197Z,48.36
2023-04-02T16:38:20.686Z,49.83
2023-04-02T16:41:41.301Z,47.34
2023-04-02T16:44:45.973Z,49.11
2023-04-02T16:47:21.491Z,49.40
2023-04-02T16:50:21.388Z,49.16
2023-04-02T16:53:17.061Z,51.62
2023-04-02T16:56:35.062Z,51.03
2023-04-02T16:59:40.402Z,50.49
2023-04-02T17:02:45.998Z,52.05
2023-04-02T17:05:56.678Z,52.54
2023-04-02T17:08:50.630Z,53.40
2023-04-02T17:11:48.883Z,53.09
2023-04-02T17:14:52.669Z,52.42
2023-04-02T17:17:22.505Z,53.20
2023-04-02T17:19:58.588Z,53.39
2023-04-02T17:22:25.706Z,51.51
2023-04-02T17:25:00.144Z,52.56
2023-04-02T17:27:42.909Z,53.64
2023-04-02T17:30:51.684Z,53.41
2023-04-02T17:33:21.588Z,55.09
2023-04-02T17:36:09.971Z,54.51
2023-04-02T17:39:25.451Z,55.28
2023-04-02T17:42:17.158Z,54.12
2023-04-02T17:45:18.212Z,55.15
2023-04-02T17:48:25.383Z,55.46
2023-04-02T17:51:21.728Z,56.10
2023-04-02T17:54:22.061Z,57.04
2023-04-02T17:57:00.602Z,56.58
2023-04-02T18:00:44.478Z,56.93
2023-04-02T18:04:04.938Z,57.26
2023-04-02T18:07:06.879Z,57.28
2023-04-02T18:09:43.336Z,57.52
2023-04-02T18:12:40.541Z,59.01
2023-04-02T18:15:41.668Z,57.81
2023-04-02T18:19:16.134Z,57.56
2023-04-02T18:22:39.287Z,57.36
2023-04-02T18:26:09.002Z,57.56
2023-04-02T18:29:08.056Z,59.00
2023-04-02T18:31:52.916Z,59.53
2023-04-02T18:35:10.482Z,59.30
2023-04-02T18:38:26.830Z,60.11
2023-04-02T18:41:14.937Z,59.70
2023-04-02T18:44:25.507Z,60.22
2023-04-02T18:46:59.416Z,60.68
2023-04-02T18:49:40.293Z,60.88
2023-04-02T18:52:17.344Z,60.91
2023-04-02T18:54:55.455Z,61.86
2023-04-02T18:57:29.933Z,61.92
2023-04-02T19:00:40.023Z,60.62
2023-04-02T19:03:31.545Z,61.01
2023-04-02T19:06:08.854Z,60.75
2023-04-02T19:09:01.140Z,61.33
2023-04-02T19:11:29.487Z,60.73
2023-04-02T19:14:01.213Z,62.44
2023-04-02T19:16:59.598Z,60.30
2023-04-02T19:20:02.329Z,60.88
2023-04-02T19:22:56.278Z,62.21
2023-04-02T19:25:56.077Z,61.50
2023-04-02T19:28:28.583Z,62.15
2023-04-02T19:31:26.298Z,61.64
2023-04-02T19:34:23.293Z,61.47
2023-04-02T19:37:36.572Z,60.54
2023-04-02T19:40:46.800Z,61.73
2023-04-02T19:43:13.906Z,62.62
2023-04-02T19:45:45.182Z,61.97
2023-04-02T19:48:44.188Z,62.78
2023-04-02T19:51:11.445Z,62.77
2023-04-02T19:53:38.493Z,63.05
2023-04-02T19:56:05.544Z,62.73
2023-04-02T19:58:35.965Z,62.43
2023-04-02T20:01:03.823Z,62.65
2023-04-02T20:03:31.495Z,63.65
2023-04-02T20:05:59.677Z,62.17
2023-04-02T20:08:28.271Z,62.49
2023-04-02T20:10:58.574Z,62.10
2023-04-02T20:13:25.816Z,63.02
2023-04-02T20:15:53.059Z,62.89
2023-04-02T20:18:21.487Z,63.56
2023-04-02T20:20:51.399Z,63.36
2023-04-02T20:23:20.031Z,62.48
2023-04-02T20:25:53.025Z,63.06
2023-04-02T20:28:22.731Z,62.61
2023-04-02T20:30:50.591Z,62.69
2023-04-02T20:35:16.205Z,63.52
2023-04-02T20:39:51.961Z,62.43
2023-04-02T20:42:19.101Z,62.59
2023-04-02T20:44:46.291Z,63.38
2023-04-02T20:47:13.819Z,64.31
2023-04-02T20:49:41.364Z,62.90
2023-04-02T20:52:09.292Z,62.98
2023-04-02T20:54:36.652Z,62.12
2023-04-02T20:57:05.272Z,63.78
2023-04-02T20:59:32.419Z,62.36
2023-04-02T21:01:59.634Z,63.73
2023-04-02T21:04:28.643Z,64.61
2023-04-02T21:06:57.099Z,64.16
2023-04-02T21:09:24.302Z,64.07
2023-04-02T21:11:51.529Z,63.69
2023-04-02T21:14:19.066Z,64.41
2023-04-02T21:16:46.294Z,63.80
2023-04-02T21:19:13.398Z,64.29
2023-04-02T21:21:41.059Z,64.90
2023-04-02T21:24:09.736Z,64.42
2023-04-02T21:26:40.945Z,65.90
2023-04-02T21:29:08.163Z,65.00
2023-04-02T21:31:39.679Z,66.17
2023-04-02T21:34:09.059Z,66.02
2023-04-02T21:36:45.494Z,66.55
2023-04-02T21:39:20.488Z,65.81
2023-04-02T21:41:50.807Z,66.26
2023-04-02T21:44:23.715Z,66.78
2023-04-02T21:46:53.678Z,66.54
2023-04-02T21:49:23.505Z,67.89
2023-04-02T21:51:52.136Z,67.75
2023-04-02T21:54:21.516Z,66.82
2023-04-02T21:56:51.887Z,66.79
2023-04-02T21:59:19.802Z,67.74
2023-04-02T22:01:50.431Z,68.36
2023-04-02T22:04:25.651Z,66.43
2023-04-02T22:06:54.041Z,67.48
2023-04-02T22:09:25.081Z,68.43
2023-04-02T22:11:59.038Z,67.12
2023-04-02T22:14:27.390Z,68.02
2023-04-02T22:17:00.884Z,67.69
2023-04-02T22:19:28.141Z,67.85
2023-04-02T22:21:56.277Z,67.43
2023-04-02T22:24:23.336Z,68.44
2023-04-02T22:26:51.092Z,68.34
2023-04-02T22:29:18.336Z,68.69
2023-04-02T22:31:45.535Z,68.23
2023-04-02T22:34:12.686Z,68.20
2023-04-02T22:36:39.800Z,67.32
2023-04-02T22:39:10.288Z,66.66
2023-04-02T22:41:38.232Z,69.35
2023-04-02T22:44:05.461Z,68.69
2023-04-02T22:46:32.689Z,68.41
2023-04-02T22:48:59.876Z,68.17
2023-04-02T22:51:27.987Z,69.62
2023-04-02T22:53:58.144Z,69.12
2023-04-02T22:56:32.783Z,68.37
2023-04-02T22:58:59.929Z,68.11
2023-04-02T23:01:35.427Z,68.96
2023-04-02T23:04:04.769Z,68.83
2023-04-02T23:06:32.530Z,69.21
2023-04-02T23:08:59.680Z,68.17
2023-04-02T23:11:28.245Z,67.62
2023-04-02T23:13:57.997Z,69.29
2023-04-02T23:16:29.476Z,68.71
2023-04-02T23:18:57.418Z,68.46
2023-04-02T23:21:26.139Z,69.09
2023-04-02T23:23:53.600Z,69.27
2023-04-02T23:26:29.578Z,69.34
2023-04-02T23:28:59.374Z,68.90
2023-04-02T23:31:27.190Z,69.15
2023-04-02T23:33:54.641Z,69.51
2023-04-02T23:36:34.369Z,70.08
2023-04-02T23:39:10.268Z,68.86
2023-04-02T23:41:40.826Z,69.20
2023-04-02T23:44:10.910Z,68.60
2023-04-02T23:46:38.271Z,69.85
2023-04-02T23:49:05.578Z,69.71
2023-04-02T23:51:32.949Z,68.79
2023-04-02T23:54:00.275Z,68.23
2023-04-02T23:56:28.345Z,70.01
2023-04-02T23:58:55.721Z,69.68
